Veles, Macedonia
Current Conditions -  °F | °C
As of 3:00 AM on Saturday 20 Dec 2014 (Local Time) from LWSK Reporting Station
Overcast Overcast  
Wind Chill: 32°   Ceiling: 500
Heat Index: 37°   Visibility: 4mi
Dew Point: 36°   Wind: 7mph
Humidity: 93%   Direction: 20°NNE
Pressure: 30.21"   Gusts: NA
Location:  41.73°N, 21.78°E
Report Text: LWSK 200100Z 02006KT 6000 OVC005 03/02 Q1023 NOSIG
Loading
Personal Weather Stations






























Interactive Weather Map New forecast layout! Learn more

10-Day Weather Forecast

Advertisements
Track Severe Weather on mobile